sensor_id;sensor_type;location;lat;lon;timestamp;temperature;humidity
30825;DHT22;17550;45.486;12.222;2023-04-22T00:00:17;14.10;99.90
30825;DHT22;17550;45.486;12.222;2023-04-22T00:02:43;14.10;99.90
30825;DHT22;17550;45.486;12.222;2023-04-22T00:05:09;14.00;99.90
30825;DHT22;17550;45.486;12.222;2023-04-22T00:07:38;13.90;99.90
30825;DHT22;17550;45.486;12.222;2023-04-22T00:10:06;13.80;99.90
30825;DHT22;17550;45.486;12.222;2023-04-22T00:12:32;13.70;99.90
30825;DHT22;17550;45.486;12.222;2023-04-22T00:14:59;13.70;99.90
30825;DHT22;17550;45.486;12.222;2023-04-22T00:17:25;13.70;99.90
30825;DHT22;17550;45.486;12.222;2023-04-22T00:19:50;13.60;99.90
30825;DHT22;17550;45.486;12.222;2023-04-22T00:22:16;13.70;99.90
30825;DHT22;17550;45.486;12.222;2023-04-22T00:24:42;13.70;99.90
30825;DHT22;17550;45.486;12.222;2023-04-22T00:27:07;13.80;99.90
30825;DHT22;17550;45.486;12.222;2023-04-22T00:29:34;13.70;99.90
30825;DHT22;17550;45.486;12.222;2023-04-22T00:32:00;13.70;99.90
30825;DHT22;17550;45.486;12.222;2023-04-22T00:34:26;13.70;99.90
30825;DHT22;17550;45.486;12.222;2023-04-22T00:36:51;13.70;99.90
30825;DHT22;17550;45.486;12.222;2023-04-22T00:39:17;13.60;99.90
30825;DHT22;17550;45.486;12.222;2023-04-22T00:41:43;13.60;99.90
30825;DHT22;17550;45.486;12.222;2023-04-22T00:44:09;13.50;99.90
30825;DHT22;17550;45.486;12.222;2023-04-22T00:46:36;13.40;99.90
30825;DHT22;17550;45.486;12.222;2023-04-22T00:49:03;13.30;99.90
30825;DHT22;17550;45.486;12.222;2023-04-22T00:51:30;13.10;99.90
30825;DHT22;17550;45.486;12.222;2023-04-22T00:53:56;13.10;99.90
30825;DHT22;17550;45.486;12.222;2023-04-22T00:56:24;13.00;99.90
30825;DHT22;17550;45.486;12.222;2023-04-22T00:58:53;13.00;99.90
30825;DHT22;17550;45.486;12.222;2023-04-22T01:01:19;12.90;99.90
30825;DHT22;17550;45.486;12.222;2023-04-22T01:03:46;12.90;99.90
30825;DHT22;17550;45.486;12.222;2023-04-22T01:06:12;13.00;99.90
30825;DHT22;17550;45.486;12.222;2023-04-22T01:08:39;13.00;99.90
30825;DHT22;17550;45.486;12.222;2023-04-22T01:11:05;13.10;99.90
30825;DHT22;17550;45.486;12.222;2023-04-22T01:13:31;13.10;99.90
30825;DHT22;17550;45.486;12.222;2023-04-22T01:15:59;13.10;99.90
30825;DHT22;17550;45.486;12.222;2023-04-22T01:18:25;13.10;99.90
30825;DHT22;17550;45.486;12.222;2023-04-22T01:20:52;13.10;99.90
30825;DHT22;17550;45.486;12.222;2023-04-22T01:23:21;13.10;99.90
30825;DHT22;17550;45.486;12.222;2023-04-22T01:25:47;13.20;99.90
30825;DHT22;17550;45.486;12.222;2023-04-22T01:28:14;13.20;99.90
30825;DHT22;17550;45.486;12.222;2023-04-22T01:30:43;13.30;99.90
30825;DHT22;17550;45.486;12.222;2023-04-22T01:33:09;13.20;99.90
30825;DHT22;17550;45.486;12.222;2023-04-22T01:35:36;13.20;99.90
30825;DHT22;17550;45.486;12.222;2023-04-22T01:38:08;13.20;99.90
30825;DHT22;17550;45.486;12.222;2023-04-22T01:40:34;13.10;99.90
30825;DHT22;17550;45.486;12.222;2023-04-22T01:43:00;13.10;99.90
30825;DHT22;17550;45.486;12.222;2023-04-22T01:45:27;13.10;99.90
30825;DHT22;17550;45.486;12.222;2023-04-22T01:47:53;13.10;99.90
30825;DHT22;17550;45.486;12.222;2023-04-22T01:50:20;13.10;99.90
30825;DHT22;17550;45.486;12.222;2023-04-22T01:52:46;13.00;99.90
30825;DHT22;17550;45.486;12.222;2023-04-22T01:55:12;13.00;99.90
30825;DHT22;17550;45.486;12.222;2023-04-22T01:57:38;13.00;99.90
30825;DHT22;17550;45.486;12.222;2023-04-22T02:00:04;13.00;99.90
30825;DHT22;17550;45.486;12.222;2023-04-22T02:02:30;12.90;99.90
30825;DHT22;17550;45.486;12.222;2023-04-22T02:04:56;12.90;99.90
30825;DHT22;17550;45.486;12.222;2023-04-22T02:07:22;12.90;99.90
30825;DHT22;17550;45.486;12.222;2023-04-22T02:09:49;12.90;99.90
30825;DHT22;17550;45.486;12.222;2023-04-22T02:12:14;12.80;99.90
30825;DHT22;17550;45.486;12.222;2023-04-22T02:14:40;12.80;99.90
30825;DHT22;17550;45.486;12.222;2023-04-22T02:17:06;12.80;99.90
30825;DHT22;17550;45.486;12.222;2023-04-22T02:19:32;12.80;99.90
30825;DHT22;17550;45.486;12.222;2023-04-22T02:21:57;12.90;99.90
30825;DHT22;17550;45.486;12.222;2023-04-22T02:24:23;12.90;99.90
30825;DHT22;17550;45.486;12.222;2023-04-22T02:26:49;12.90;99.90
30825;DHT22;17550;45.486;12.222;2023-04-22T02:29:15;12.90;99.90
30825;DHT22;17550;45.486;12.222;2023-04-22T02:31:41;12.90;99.90
30825;DHT22;17550;45.486;12.222;2023-04-22T02:34:07;12.90;99.90
30825;DHT22;17550;45.486;12.222;2023-04-22T02:36:33;12.90;99.90
30825;DHT22;17550;45.486;12.222;2023-04-22T02:39:02;12.90;99.90
30825;DHT22;17550;45.486;12.222;2023-04-22T02:41:29;12.80;99.90
30825;DHT22;17550;45.486;12.222;2023-04-22T02:43:55;12.80;99.90
30825;DHT22;17550;45.486;12.222;2023-04-22T02:46:21;12.80;99.90
30825;DHT22;17550;45.486;12.222;2023-04-22T02:48:46;12.70;99.90
30825;DHT22;17550;45.486;12.222;2023-04-22T02:51:13;12.60;99.90
30825;DHT22;17550;45.486;12.222;2023-04-22T02:53:39;12.60;99.90
30825;DHT22;17550;45.486;12.222;2023-04-22T02:56:05;12.70;99.90
30825;DHT22;17550;45.486;12.222;2023-04-22T02:58:31;12.70;99.90
30825;DHT22;17550;45.486;12.222;2023-04-22T03:00:57;12.70;99.90
30825;DHT22;17550;45.486;12.222;2023-04-22T03:03:22;12.70;99.90
30825;DHT22;17550;45.486;12.222;2023-04-22T03:05:48;12.70;99.90
30825;DHT22;17550;45.486;12.222;2023-04-22T03:08:14;12.80;99.90
30825;DHT22;17550;45.486;12.222;2023-04-22T03:10:40;12.80;99.90
30825;DHT22;17550;45.486;12.222;2023-04-22T03:13:05;12.80;99.90
30825;DHT22;17550;45.486;12.222;2023-04-22T03:15:31;12.80;99.90
30825;DHT22;17550;45.486;12.222;2023-04-22T03:17:57;12.80;99.90
30825;DHT22;17550;45.486;12.222;2023-04-22T03:20:22;12.80;99.90
30825;DHT22;17550;45.486;12.222;2023-04-22T03:22:48;12.70;99.90
30825;DHT22;17550;45.486;12.222;2023-04-22T03:25:17;12.70;99.90
30825;DHT22;17550;45.486;12.222;2023-04-22T03:27:43;12.80;99.90
30825;DHT22;17550;45.486;12.222;2023-04-22T03:30:08;12.70;99.90
30825;DHT22;17550;45.486;12.222;2023-04-22T03:32:34;12.70;99.90
30825;DHT22;17550;45.486;12.222;2023-04-22T03:35:00;12.70;99.90
30825;DHT22;17550;45.486;12.222;2023-04-22T03:37:26;12.70;99.90
30825;DHT22;17550;45.486;12.222;2023-04-22T03:39:52;12.70;99.90
30825;DHT22;17550;45.486;12.222;2023-04-22T03:42:18;12.40;99.90
30825;DHT22;17550;45.486;12.222;2023-04-22T03:44:43;12.40;99.90
30825;DHT22;17550;45.486;12.222;2023-04-22T03:47:09;12.40;99.90
30825;DHT22;17550;45.486;12.222;2023-04-22T03:49:34;12.20;99.90
30825;DHT22;17550;45.486;12.222;2023-04-22T03:52:00;12.20;99.90
30825;DHT22;17550;45.486;12.222;2023-04-22T03:54:26;12.20;99.90
30825;DHT22;17550;45.486;12.222;2023-04-22T03:56:52;12.20;99.90
30825;DHT22;17550;45.486;12.222;2023-04-22T03:59:17;12.20;99.90
30825;DHT22;17550;45.486;12.222;2023-04-22T04:01:45;12.30;99.90
30825;DHT22;17550;45.486;12.222;2023-04-22T04:04:11;12.30;99.90
30825;DHT22;17550;45.486;12.222;2023-04-22T04:06:37;12.30;99.90
30825;DHT22;17550;45.486;12.222;2023-04-22T04:09:04;12.40;99.90
30825;DHT22;17550;45.486;12.222;2023-04-22T04:11:30;12.30;99.90
30825;DHT22;17550;45.486;12.222;2023-04-22T04:13:55;12.30;99.90
30825;DHT22;17550;45.486;12.222;2023-04-22T04:16:21;12.40;99.90
30825;DHT22;17550;45.486;12.222;2023-04-22T04:18:50;12.40;99.90
30825;DHT22;17550;45.486;12.222;2023-04-22T04:21:16;12.30;99.90
30825;DHT22;17550;45.486;12.222;2023-04-22T04:23:42;12.30;99.90
30825;DHT22;17550;45.486;12.222;2023-04-22T04:26:08;12.40;99.90
30825;DHT22;17550;45.486;12.222;2023-04-22T04:28:34;12.40;99.90
30825;DHT22;17550;45.486;12.222;2023-04-22T04:31:00;12.40;99.90
30825;DHT22;17550;45.486;12.222;2023-04-22T04:33:29;12.50;99.90
30825;DHT22;17550;45.486;12.222;2023-04-22T04:35:57;12.60;99.90
30825;DHT22;17550;45.486;12.222;2023-04-22T04:38:23;12.80;99.90
30825;DHT22;17550;45.486;12.222;2023-04-22T04:40:49;13.20;99.90
30825;DHT22;17550;45.486;12.222;2023-04-22T04:43:15;13.60;99.90
30825;DHT22;17550;45.486;12.222;2023-04-22T04:45:41;13.90;99.90
30825;DHT22;17550;45.486;12.222;2023-04-22T04:48:12;13.90;99.90
30825;DHT22;17550;45.486;12.222;2023-04-22T04:50:42;14.00;99.90
30825;DHT22;17550;45.486;12.222;2023-04-22T04:53:09;13.90;99.90
30825;DHT22;17550;45.486;12.222;2023-04-22T04:55:35;13.80;99.90
30825;DHT22;17550;45.486;12.222;2023-04-22T04:58:01;13.80;99.90
30825;DHT22;17550;45.486;12.222;2023-04-22T05:00:26;13.80;99.90
30825;DHT22;17550;45.486;12.222;2023-04-22T05:02:52;13.90;99.90
30825;DHT22;17550;45.486;12.222;2023-04-22T05:05:18;13.90;99.90
30825;DHT22;17550;45.486;12.222;2023-04-22T05:07:44;13.80;99.90
30825;DHT22;17550;45.486;12.222;2023-04-22T05:10:10;13.60;99.90
30825;DHT22;17550;45.486;12.222;2023-04-22T05:12:37;13.60;99.90
30825;DHT22;17550;45.486;12.222;2023-04-22T05:15:03;13.50;99.90
30825;DHT22;17550;45.486;12.222;2023-04-22T05:17:29;13.50;99.90
30825;DHT22;17550;45.486;12.222;2023-04-22T05:19:56;13.50;99.90
30825;DHT22;17550;45.486;12.222;2023-04-22T05:22:21;13.70;99.90
30825;DHT22;17550;45.486;12.222;2023-04-22T05:24:47;14.10;99.90
30825;DHT22;17550;45.486;12.222;2023-04-22T05:27:13;14.20;99.90
30825;DHT22;17550;45.486;12.222;2023-04-22T05:29:39;14.20;99.90
30825;DHT22;17550;45.486;12.222;2023-04-22T05:32:06;14.40;99.90
30825;DHT22;17550;45.486;12.222;2023-04-22T05:34:32;14.50;99.90
30825;DHT22;17550;45.486;12.222;2023-04-22T05:37:01;14.60;99.90
30825;DHT22;17550;45.486;12.222;2023-04-22T05:39:26;14.70;99.90
30825;DHT22;17550;45.486;12.222;2023-04-22T05:41:53;14.80;99.90
30825;DHT22;17550;45.486;12.222;2023-04-22T05:44:19;14.80;99.90
30825;DHT22;17550;45.486;12.222;2023-04-22T05:46:45;14.70;99.90
30825;DHT22;17550;45.486;12.222;2023-04-22T05:49:11;14.70;99.90
30825;DHT22;17550;45.486;12.222;2023-04-22T05:51:37;14.70;99.90
30825;DHT22;17550;45.486;12.222;2023-04-22T05:54:03;14.70;99.90
30825;DHT22;17550;45.486;12.222;2023-04-22T05:56:28;14.70;99.90
30825;DHT22;17550;45.486;12.222;2023-04-22T05:58:54;14.70;99.90
30825;DHT22;17550;45.486;12.222;2023-04-22T06:01:21;14.80;99.90
30825;DHT22;17550;45.486;12.222;2023-04-22T06:03:46;14.80;99.90
30825;DHT22;17550;45.486;12.222;2023-04-22T06:06:12;15.00;99.90
30825;DHT22;17550;45.486;12.222;2023-04-22T06:08:38;15.10;99.90
30825;DHT22;17550;45.486;12.222;2023-04-22T06:11:03;15.20;99.90
30825;DHT22;17550;45.486;12.222;2023-04-22T06:13:29;15.10;99.90
30825;DHT22;17550;45.486;12.222;2023-04-22T06:15:55;15.20;99.90
30825;DHT22;17550;45.486;12.222;2023-04-22T06:18:20;15.30;99.90
30825;DHT22;17550;45.486;12.222;2023-04-22T06:20:46;15.40;99.90
30825;DHT22;17550;45.486;12.222;2023-04-22T06:23:12;15.60;99.90
30825;DHT22;17550;45.486;12.222;2023-04-22T06:25:37;15.70;99.90
30825;DHT22;17550;45.486;12.222;2023-04-22T06:28:03;15.70;99.90
30825;DHT22;17550;45.486;12.222;2023-04-22T06:30:29;15.80;99.90
30825;DHT22;17550;45.486;12.222;2023-04-22T06:32:55;15.90;99.90
30825;DHT22;17550;45.486;12.222;2023-04-22T06:35:21;15.90;99.90
30825;DHT22;17550;45.486;12.222;2023-04-22T06:37:47;15.90;99.90
30825;DHT22;17550;45.486;12.222;2023-04-22T06:40:13;15.80;99.90
30825;DHT22;17550;45.486;12.222;2023-04-22T06:42:39;15.80;99.90
30825;DHT22;17550;45.486;12.222;2023-04-22T06:45:06;15.90;99.90
30825;DHT22;17550;45.486;12.222;2023-04-22T06:47:33;15.90;99.90
30825;DHT22;17550;45.486;12.222;2023-04-22T06:50:00;16.10;99.90
30825;DHT22;17550;45.486;12.222;2023-04-22T06:52:26;16.10;99.90
30825;DHT22;17550;45.486;12.222;2023-04-22T06:54:52;16.20;99.90
30825;DHT22;17550;45.486;12.222;2023-04-22T06:57:18;16.40;99.90
30825;DHT22;17550;45.486;12.222;2023-04-22T06:59:43;16.60;99.90
30825;DHT22;17550;45.486;12.222;2023-04-22T07:02:09;16.80;99.90
30825;DHT22;17550;45.486;12.222;2023-04-22T07:04:35;17.00;99.90
30825;DHT22;17550;45.486;12.222;2023-04-22T07:07:01;17.30;99.90
30825;DHT22;17550;45.486;12.222;2023-04-22T07:09:26;17.40;99.90
30825;DHT22;17550;45.486;12.222;2023-04-22T07:11:53;17.40;99.90
30825;DHT22;17550;45.486;12.222;2023-04-22T07:14:19;17.40;99.90
30825;DHT22;17550;45.486;12.222;2023-04-22T07:16:45;17.70;99.90
30825;DHT22;17550;45.486;12.222;2023-04-22T07:19:11;17.70;99.90
30825;DHT22;17550;45.486;12.222;2023-04-22T07:21:37;17.70;99.90
30825;DHT22;17550;45.486;12.222;2023-04-22T07:24:02;17.80;99.90
30825;DHT22;17550;45.486;12.222;2023-04-22T07:26:28;17.80;99.90
30825;DHT22;17550;45.486;12.222;2023-04-22T07:28:56;17.70;99.90
30825;DHT22;17550;45.486;12.222;2023-04-22T07:31:22;17.70;99.90
30825;DHT22;17550;45.486;12.222;2023-04-22T07:33:47;17.80;99.90
30825;DHT22;17550;45.486;12.222;2023-04-22T07:36:13;17.80;99.90
30825;DHT22;17550;45.486;12.222;2023-04-22T07:38:39;18.00;99.90
30825;DHT22;17550;45.486;12.222;2023-04-22T07:41:05;18.10;99.90
30825;DHT22;17550;45.486;12.222;2023-04-22T07:43:30;18.20;99.90
30825;DHT22;17550;45.486;12.222;2023-04-22T07:45:56;18.30;99.90
30825;DHT22;17550;45.486;12.222;2023-04-22T07:48:22;18.30;99.90
30825;DHT22;17550;45.486;12.222;2023-04-22T07:50:48;18.20;99.90
30825;DHT22;17550;45.486;12.222;2023-04-22T07:53:13;18.30;99.90
30825;DHT22;17550;45.486;12.222;2023-04-22T07:55:40;18.50;99.90
30825;DHT22;17550;45.486;12.222;2023-04-22T07:58:06;18.40;99.90
30825;DHT22;17550;45.486;12.222;2023-04-22T08:00:34;18.50;99.90
30825;DHT22;17550;45.486;12.222;2023-04-22T08:03:01;18.30;99.90
30825;DHT22;17550;45.486;12.222;2023-04-22T08:05:27;18.20;99.90
30825;DHT22;17550;45.486;12.222;2023-04-22T08:07:52;18.00;99.90
30825;DHT22;17550;45.486;12.222;2023-04-22T08:10:18;18.10;99.90
30825;DHT22;17550;45.486;12.222;2023-04-22T08:12:44;18.30;99.90
30825;DHT22;17550;45.486;12.222;2023-04-22T08:15:10;18.30;99.90
30825;DHT22;17550;45.486;12.222;2023-04-22T08:17:37;18.50;99.90
30825;DHT22;17550;45.486;12.222;2023-04-22T08:20:03;18.50;99.90
30825;DHT22;17550;45.486;12.222;2023-04-22T08:22:29;18.50;99.90
30825;DHT22;17550;45.486;12.222;2023-04-22T08:24:56;18.70;99.90
30825;DHT22;17550;45.486;12.222;2023-04-22T08:27:22;18.80;99.80
30825;DHT22;17550;45.486;12.222;2023-04-22T08:29:47;18.80;99.60
30825;DHT22;17550;45.486;12.222;2023-04-22T08:32:13;18.80;99.50
30825;DHT22;17550;45.486;12.222;2023-04-22T08:34:39;18.80;99.40
30825;DHT22;17550;45.486;12.222;2023-04-22T08:37:05;18.80;99.50
30825;DHT22;17550;45.486;12.222;2023-04-22T08:39:30;18.70;99.90
30825;DHT22;17550;45.486;12.222;2023-04-22T08:41:56;18.80;99.60
30825;DHT22;17550;45.486;12.222;2023-04-22T08:44:22;18.90;99.30
30825;DHT22;17550;45.486;12.222;2023-04-22T08:46:50;19.10;98.80
30825;DHT22;17550;45.486;12.222;2023-04-22T08:49:19;19.00;99.20
30825;DHT22;17550;45.486;12.222;2023-04-22T08:51:44;19.20;99.00
30825;DHT22;17550;45.486;12.222;2023-04-22T08:54:11;19.30;98.70
30825;DHT22;17550;45.486;12.222;2023-04-22T08:56:42;19.40;98.60
30825;DHT22;17550;45.486;12.222;2023-04-22T08:59:09;19.50;98.40
30825;DHT22;17550;45.486;12.222;2023-04-22T09:01:37;19.70;98.00
30825;DHT22;17550;45.486;12.222;2023-04-22T09:04:04;19.90;97.80
30825;DHT22;17550;45.486;12.222;2023-04-22T09:06:32;20.00;97.40
30825;DHT22;17550;45.486;12.222;2023-04-22T09:08:58;20.00;97.60
30825;DHT22;17550;45.486;12.222;2023-04-22T09:11:28;20.20;97.70
30825;DHT22;17550;45.486;12.222;2023-04-22T09:13:54;20.30;97.40
30825;DHT22;17550;45.486;12.222;2023-04-22T09:16:20;20.40;97.60
30825;DHT22;17550;45.486;12.222;2023-04-22T09:18:45;20.50;97.30
30825;DHT22;17550;45.486;12.222;2023-04-22T09:21:11;20.60;96.90
30825;DHT22;17550;45.486;12.222;2023-04-22T09:24:05;20.70;97.00
30825;DHT22;17550;45.486;12.222;2023-04-22T09:26:31;20.80;97.00
30825;DHT22;17550;45.486;12.222;2023-04-22T09:28:58;20.90;96.50
30825;DHT22;17550;45.486;12.222;2023-04-22T09:31:27;21.00;96.30
30825;DHT22;17550;45.486;12.222;2023-04-22T09:34:01;21.00;96.40
30825;DHT22;17550;45.486;12.222;2023-04-22T09:36:28;21.20;96.00
30825;DHT22;17550;45.486;12.222;2023-04-22T09:39:00;21.20;95.40
30825;DHT22;17550;45.486;12.222;2023-04-22T09:41:29;21.20;95.20
30825;DHT22;17550;45.486;12.222;2023-04-22T09:43:57;21.20;95.70
30825;DHT22;17550;45.486;12.222;2023-04-22T09:46:24;21.20;95.60
30825;DHT22;17550;45.486;12.222;2023-04-22T09:48:51;21.30;95.20
30825;DHT22;17550;45.486;12.222;2023-04-22T09:51:18;21.40;95.20
30825;DHT22;17550;45.486;12.222;2023-04-22T09:53:44;21.50;95.20
30825;DHT22;17550;45.486;12.222;2023-04-22T09:56:11;21.50;95.30
30825;DHT22;17550;45.486;12.222;2023-04-22T09:58:42;21.60;94.70
30825;DHT22;17550;45.486;12.222;2023-04-22T10:01:07;21.60;95.10
30825;DHT22;17550;45.486;12.222;2023-04-22T10:03:33;21.70;95.20
30825;DHT22;17550;45.486;12.222;2023-04-22T10:05:59;21.80;94.40
30825;DHT22;17550;45.486;12.222;2023-04-22T10:08:25;21.90;94.50
30825;DHT22;17550;45.486;12.222;2023-04-22T10:10:52;21.90;94.80
30825;DHT22;17550;45.486;12.222;2023-04-22T10:13:18;22.00;94.60
30825;DHT22;17550;45.486;12.222;2023-04-22T10:15:54;22.00;94.40
30825;DHT22;17550;45.486;12.222;2023-04-22T10:18:24;21.90;94.80
30825;DHT22;17550;45.486;12.222;2023-04-22T10:20:51;22.00;94.50
30825;DHT22;17550;45.486;12.222;2023-04-22T10:23:20;22.10;94.50
30825;DHT22;17550;45.486;12.222;2023-04-22T10:25:53;22.20;94.30
30825;DHT22;17550;45.486;12.222;2023-04-22T10:28:21;22.10;94.30
30825;DHT22;17550;45.486;12.222;2023-04-22T10:30:47;22.20;94.10
30825;DHT22;17550;45.486;12.222;2023-04-22T10:36:15;22.20;94.90
30825;DHT22;17550;45.486;12.222;2023-04-22T10:41:27;22.30;93.80
30825;DHT22;17550;45.486;12.222;2023-04-22T10:44:04;22.50;93.80
30825;DHT22;17550;45.486;12.222;2023-04-22T10:48:59;22.50;93.70
30825;DHT22;17550;45.486;12.222;2023-04-22T10:51:50;22.50;93.10
30825;DHT22;17550;45.486;12.222;2023-04-22T10:57:00;22.90;93.40
30825;DHT22;17550;45.486;12.222;2023-04-22T10:59:30;22.90;93.70
30825;DHT22;17550;45.486;12.222;2023-04-22T11:02:04;22.90;92.90
30825;DHT22;17550;45.486;12.222;2023-04-22T11:04:30;23.10;93.10
30825;DHT22;17550;45.486;12.222;2023-04-22T11:09:43;23.30;93.00
30825;DHT22;17550;45.486;12.222;2023-04-22T11:17:39;23.40;92.50
30825;DHT22;17550;45.486;12.222;2023-04-22T11:20:07;23.40;92.60
30825;DHT22;17550;45.486;12.222;2023-04-22T11:22:35;23.50;92.70
30825;DHT22;17550;45.486;12.222;2023-04-22T11:25:02;23.40;93.10
30825;DHT22;17550;45.486;12.222;2023-04-22T11:27:32;23.60;92.00
30825;DHT22;17550;45.486;12.222;2023-04-22T11:30:10;23.60;91.90
30825;DHT22;17550;45.486;12.222;2023-04-22T11:32:39;23.70;92.40
30825;DHT22;17550;45.486;12.222;2023-04-22T11:35:07;23.70;93.00
30825;DHT22;17550;45.486;12.222;2023-04-22T11:38:03;23.90;92.40
30825;DHT22;17550;45.486;12.222;2023-04-22T11:40:36;23.90;92.50
30825;DHT22;17550;45.486;12.222;2023-04-22T11:43:04;23.80;92.50
30825;DHT22;17550;45.486;12.222;2023-04-22T11:45:32;23.90;92.20
30825;DHT22;17550;45.486;12.222;2023-04-22T11:47:58;24.10;92.00
30825;DHT22;17550;45.486;12.222;2023-04-22T11:50:28;24.10;91.40
30825;DHT22;17550;45.486;12.222;2023-04-22T11:53:10;24.10;91.80
30825;DHT22;17550;45.486;12.222;2023-04-22T11:55:38;24.20;92.30
30825;DHT22;17550;45.486;12.222;2023-04-22T11:58:09;24.20;92.30
30825;DHT22;17550;45.486;12.222;2023-04-22T12:00:39;24.40;91.80
30825;DHT22;17550;45.486;12.222;2023-04-22T12:05:43;24.70;90.60
30825;DHT22;17550;45.486;12.222;2023-04-22T12:08:17;24.90;90.60
30825;DHT22;17550;45.486;12.222;2023-04-22T12:10:50;24.90;89.80
30825;DHT22;17550;45.486;12.222;2023-04-22T12:13:39;25.00;88.80
30825;DHT22;17550;45.486;12.222;2023-04-22T12:16:15;24.90;90.00
30825;DHT22;17550;45.486;12.222;2023-04-22T12:18:52;25.10;86.80
30825;DHT22;17550;45.486;12.222;2023-04-22T12:21:20;25.10;86.50
30825;DHT22;17550;45.486;12.222;2023-04-22T12:26:14;24.80;88.20
30825;DHT22;17550;45.486;12.222;2023-04-22T12:28:41;24.90;87.60
30825;DHT22;17550;45.486;12.222;2023-04-22T12:31:08;24.80;87.10
30825;DHT22;17550;45.486;12.222;2023-04-22T12:33:35;24.90;87.10
30825;DHT22;17550;45.486;12.222;2023-04-22T12:36:01;25.00;85.60
30825;DHT22;17550;45.486;12.222;2023-04-22T12:38:26;24.90;84.90
30825;DHT22;17550;45.486;12.222;2023-04-22T12:40:54;25.00;85.30
30825;DHT22;17550;45.486;12.222;2023-04-22T12:43:19;25.00;85.80
30825;DHT22;17550;45.486;12.222;2023-04-22T12:45:45;24.80;86.60
30825;DHT22;17550;45.486;12.222;2023-04-22T12:48:11;24.40;87.00
30825;DHT22;17550;45.486;12.222;2023-04-22T12:50:37;24.50;86.10
30825;DHT22;17550;45.486;12.222;2023-04-22T12:53:03;24.60;86.20
30825;DHT22;17550;45.486;12.222;2023-04-22T12:55:29;24.60;87.30
30825;DHT22;17550;45.486;12.222;2023-04-22T12:57:54;24.70;87.80
30825;DHT22;17550;45.486;12.222;2023-04-22T13:00:21;24.70;87.80
30825;DHT22;17550;45.486;12.222;2023-04-22T13:02:48;24.80;87.30
30825;DHT22;17550;45.486;12.222;2023-04-22T13:05:15;24.80;85.80
30825;DHT22;17550;45.486;12.222;2023-04-22T13:07:41;24.80;85.20
30825;DHT22;17550;45.486;12.222;2023-04-22T13:10:09;24.90;84.80
30825;DHT22;17550;45.486;12.222;2023-04-22T13:12:35;25.00;83.00
30825;DHT22;17550;45.486;12.222;2023-04-22T13:15:02;25.20;82.80
30825;DHT22;17550;45.486;12.222;2023-04-22T13:17:28;25.00;83.00
30825;DHT22;17550;45.486;12.222;2023-04-22T13:19:54;24.90;82.30
30825;DHT22;17550;45.486;12.222;2023-04-22T13:22:19;24.60;83.40
30825;DHT22;17550;45.486;12.222;2023-04-22T13:24:45;24.30;85.60
30825;DHT22;17550;45.486;12.222;2023-04-22T13:27:11;24.00;86.80
30825;DHT22;17550;45.486;12.222;2023-04-22T13:29:38;23.80;87.20
30825;DHT22;17550;45.486;12.222;2023-04-22T13:32:04;23.80;86.00
30825;DHT22;17550;45.486;12.222;2023-04-22T13:34:30;23.90;86.30
30825;DHT22;17550;45.486;12.222;2023-04-22T13:36:56;23.90;85.90
30825;DHT22;17550;45.486;12.222;2023-04-22T13:39:23;24.00;86.30
30825;DHT22;17550;45.486;12.222;2023-04-22T13:41:49;24.00;87.40
30825;DHT22;17550;45.486;12.222;2023-04-22T13:44:14;24.00;86.80
30825;DHT22;17550;45.486;12.222;2023-04-22T13:46:41;24.00;87.60
30825;DHT22;17550;45.486;12.222;2023-04-22T13:49:07;24.00;88.00
30825;DHT22;17550;45.486;12.222;2023-04-22T13:51:33;24.10;87.50
30825;DHT22;17550;45.486;12.222;2023-04-22T13:54:02;24.10;87.20
30825;DHT22;17550;45.486;12.222;2023-04-22T13:56:28;24.10;87.20
30825;DHT22;17550;45.486;12.222;2023-04-22T13:58:54;24.10;88.30
30825;DHT22;17550;45.486;12.222;2023-04-22T14:01:20;24.10;88.70
30825;DHT22;17550;45.486;12.222;2023-04-22T14:03:47;24.00;88.80
30825;DHT22;17550;45.486;12.222;2023-04-22T14:06:13;24.00;89.10
30825;DHT22;17550;45.486;12.222;2023-04-22T14:08:40;24.00;88.80
30825;DHT22;17550;45.486;12.222;2023-04-22T14:11:06;24.00;88.70
30825;DHT22;17550;45.486;12.222;2023-04-22T14:13:33;24.20;88.80
30825;DHT22;17550;45.486;12.222;2023-04-22T14:15:59;24.30;88.20
30825;DHT22;17550;45.486;12.222;2023-04-22T14:18:25;24.50;88.10
30825;DHT22;17550;45.486;12.222;2023-04-22T14:20:51;24.40;87.30
30825;DHT22;17550;45.486;12.222;2023-04-22T14:23:18;24.30;87.70
30825;DHT22;17550;45.486;12.222;2023-04-22T14:25:44;24.30;88.20
30825;DHT22;17550;45.486;12.222;2023-04-22T14:28:11;24.30;87.80
30825;DHT22;17550;45.486;12.222;2023-04-22T14:30:37;24.20;88.30
30825;DHT22;17550;45.486;12.222;2023-04-22T14:33:03;24.10;88.30
30825;DHT22;17550;45.486;12.222;2023-04-22T14:35:35;24.10;87.90
30825;DHT22;17550;45.486;12.222;2023-04-22T14:38:02;24.10;87.60
30825;DHT22;17550;45.486;12.222;2023-04-22T14:40:28;24.30;88.00
30825;DHT22;17550;45.486;12.222;2023-04-22T14:42:58;24.40;87.90
30825;DHT22;17550;45.486;12.222;2023-04-22T14:45:26;24.50;87.40
30825;DHT22;17550;45.486;12.222;2023-04-22T14:47:52;24.50;86.70
30825;DHT22;17550;45.486;12.222;2023-04-22T14:50:18;24.40;86.90
30825;DHT22;17550;45.486;12.222;2023-04-22T14:52:45;24.40;87.00
30825;DHT22;17550;45.486;12.222;2023-04-22T14:55:11;24.50;87.30
30825;DHT22;17550;45.486;12.222;2023-04-22T14:57:36;24.60;86.40
30825;DHT22;17550;45.486;12.222;2023-04-22T15:00:04;24.60;86.10
30825;DHT22;17550;45.486;12.222;2023-04-22T15:02:30;24.60;86.00
30825;DHT22;17550;45.486;12.222;2023-04-22T15:04:57;24.50;86.50
30825;DHT22;17550;45.486;12.222;2023-04-22T15:07:23;24.60;85.30
30825;DHT22;17550;45.486;12.222;2023-04-22T15:09:49;24.60;85.30
30825;DHT22;17550;45.486;12.222;2023-04-22T15:12:15;24.60;85.80
30825;DHT22;17550;45.486;12.222;2023-04-22T15:14:41;24.60;85.60
30825;DHT22;17550;45.486;12.222;2023-04-22T15:17:07;24.40;85.60
30825;DHT22;17550;45.486;12.222;2023-04-22T15:19:32;24.30;85.30
30825;DHT22;17550;45.486;12.222;2023-04-22T15:21:58;24.20;85.30
30825;DHT22;17550;45.486;12.222;2023-04-22T15:24:24;24.30;85.30
30825;DHT22;17550;45.486;12.222;2023-04-22T15:26:51;24.30;85.60
30825;DHT22;17550;45.486;12.222;2023-04-22T15:29:17;24.30;86.00
30825;DHT22;17550;45.486;12.222;2023-04-22T15:31:43;24.30;85.20
30825;DHT22;17550;45.486;12.222;2023-04-22T15:34:09;24.10;85.30
30825;DHT22;17550;45.486;12.222;2023-04-22T15:36:35;24.10;85.90